Latest Weather Observations for Geelong Racecourse

IDV60901

Issued at 12:21 pm EDT Wednesday 28 January 2015 (issued every 10 minutes, with the page automatically refreshed every 10 minutes)

About weather observations | Map of Melbourne area stations | Latest observations for Melbourne area | Other Formats
Station Details ID: 087184 Name: GEELONG RACECOURSE Lat: -38.17 Lon: 144.38 Height: 12.9 m
Data from the previous 72 hours. | See also: Recent months at Geelong Racecourse
Date/Time
EDT
Tmp

°C
App
Tmp
°C
Dew
Point
°C
Rel
Hum
%
Delta-T

°C
Wind Press
QNH
hPa
Press
MSL
hPa
Rain
since
9 am
mm
Dir
 
Spd
km/h
Gust
km/h
Spd
kts
Gust
kts
28/12:00pm 20.8 16.3 11.4 55 5.2 SE 26 41 14 22 1019.4 1019.4 0.0
28/11:30am 19.5 15.5 10.5 56 4.8 SE 22 35 12 19 1019.4 1019.4 0.0
28/11:00am 20.1 16.6 10.2 53 5.3 SE 19 30 10 16 1019.6 1019.6 0.0
28/10:30am 19.3 15.6 9.5 53 5.2 SSE 19 28 10 15 1019.4 1019.4 0.0
28/10:00am 19.5 16.4 8.8 50 5.6 SE 15 24 8 13 1019.5 1019.5 0.0
28/09:30am 18.6 14.5 8.0 50 5.4 SE 19 28 10 15 1019.5 1019.5 0.0
28/09:00am 18.5 15.4 8.7 53 5.1 ESE 15 24 8 13 1019.2 1019.2 0.0
28/08:30am 18.1 15.9 10.7 62 4.0 SE 13 20 7 11 1018.9 1018.9 0.0
28/08:00am 17.1 15.5 11.6 70 3.0 SE 11 15 6 8 1018.4 1018.4 0.0
28/07:30am 15.0 15.2 13.0 88 1.1 SSE 4 9 2 5 1018.0 1018.0 0.0
28/07:00am 11.4 11.1 10.0 91 0.7 S 2 2 1 1 1018.0 1018.0 0.0
28/06:30am 11.0 10.4 9.1 88 0.9 S 2 4 1 2 1017.8 1017.8 0.0
28/06:00am 11.2 10.6 8.9 86 1.1 S 2 2 1 1 1017.5 1017.5 0.0
28/05:30am 12.0 11.1 9.2 83 1.4 SSE 4 6 2 3 1017.2 1017.2 0.0
28/05:00am 12.6 11.6 8.9 78 1.9 S 4 6 2 3 1017.2 1017.2 0.0
28/04:30am 12.8 11.4 8.7 76 2.0 SSE 6 9 3 5 1017.1 1017.1 0.0
28/04:00am 13.1 11.8 9.2 77 2.0 SSE 6 7 3 4 1017.0 1017.0 0.0
28/03:30am 13.4 12.0 8.9 74 2.3 S 6 7 3 4 1017.2 1017.2 0.0
28/03:00am 13.7 12.1 8.7 72 2.5 S 7 9 4 5 1017.4 1017.4 0.0
28/02:30am 14.4 12.1 9.0 70 2.7 SSE 11 17 6 9 1017.6 1017.6 0.0
28/02:00am 15.4 12.5 9.5 68 3.0 SSE 15 24 8 13 1017.8 1017.8 0.0
28/01:30am 15.5 13.0 9.6 68 3.1 SSE 13 20 7 11 1018.2 1018.2 0.0
28/01:00am 15.3 12.0 9.4 68 3.0 SSE 17 26 9 14 1018.5 1018.5 0.0
28/12:30am 15.5 12.5 9.2 66 3.2 SSE 15 24 8 13 1018.6 1018.6 0.0
28/12:00am 15.2 12.4 8.4 64 3.4 SSE 13 22 7 12 1018.6 1018.6 0.0
 
Date/Time
EDT
Tmp

°C
App
Tmp
°C
Dew
Point
°C
Rel
Hum
%
Delta-T

°C
Wind Press
QNH
hPa
Press
MSL
hPa
Rain
since
9 am
mm
Dir
 
Spd
km/h
Gust
km/h
Spd
kts
Gust
kts
27/11:30pm 14.7 12.2 8.4 66 3.2 SSE 11 19 6 10 1018.8 1018.8 0.0
27/11:00pm 15.1 11.4 7.9 62 3.6 SSE 17 26 9 14 1018.9 1018.9 0.0
27/10:30pm 15.3 11.3 8.1 62 3.6 SSE 19 26 10 14 1018.9 1018.9 0.0
27/10:00pm 15.2 11.8 7.7 61 3.7 S 15 22 8 12 1018.7 1018.7 0.0
27/09:30pm 15.2 11.1 8.0 62 3.6 S 19 24 10 13 1018.6 1018.6 0.0
27/09:00pm 15.0 11.6 7.8 62 3.6 S 15 22 8 12 1018.4 1018.4 0.0
27/08:30pm 15.4 11.7 7.9 61 3.8 S 17 24 9 13 1018.4 1018.4 0.0
27/08:00pm 16.0 12.1 8.5 61 3.8 SSE 19 28 10 15 1018.1 1018.1 0.0
27/07:30pm 16.4 12.3 7.9 57 4.3 SSE 19 26 10 14 1018.0 1018.0 0.0
27/07:00pm 17.1 12.7 7.5 53 4.8 S 20 28 11 15 1017.6 1017.6 0.0
27/06:30pm 16.9 11.9 6.4 50 5.1 S 22 33 12 18 1017.5 1017.5 0.0
27/06:00pm 17.9 12.1 6.4 47 5.7 SSE 26 37 14 20 1017.4 1017.4 0.0
27/05:30pm 17.1 11.3 6.3 49 5.3 SSE 26 35 14 19 1017.5 1017.5 0.0
27/05:00pm 17.4 12.2 7.2 51 5.1 S 24 35 13 19 1017.7 1017.7 0.0
27/04:30pm 18.1 12.7 7.8 51 5.2 S 26 39 14 21 1017.6 1017.6 0.0
27/04:00pm 17.7 12.8 8.6 55 4.7 SSE 24 37 13 20 1017.6 1017.6 0.0
27/03:30pm 18.1 13.2 8.4 53 5.0 SSE 24 35 13 19 1017.7 1017.7 0.0
27/03:00pm 18.2 12.6 7.0 48 5.6 SSE 26 35 14 19 1017.7 1017.7 0.0
27/02:30pm 18.4 13.4 6.3 45 6.0 SSE 22 33 12 18 1017.8 1017.8 0.0
27/02:00pm 18.3 13.4 6.8 47 5.7 S 22 35 12 19 1017.8 1017.8 0.0
27/01:30pm 18.6 14.3 7.7 49 5.6 SSE 20 32 11 17 1017.8 1017.8 0.0
27/01:00pm 18.8 13.8 7.9 49 5.6 S 24 33 13 18 1017.9 1017.9 0.0
27/12:30pm 19.4 15.0 7.2 45 6.2 SSE 20 30 11 16 1018.0 1018.0 0.0
27/12:00pm 19.2 14.8 6.7 44 6.3 SSE 19 30 10 16 1018.1 1018.1 0.0
27/11:30am 18.4 14.1 7.8 50 5.4 SSE 20 32 11 17 1018.4 1018.4 0.0
27/11:00am 18.3 13.5 7.4 49 5.5 SSE 22 32 12 17 1018.2 1018.2 0.0
27/10:30am 19.2 14.9 7.9 48 5.8 SSE 20 35 11 19 1018.2 1018.2 0.0
27/10:00am 18.4 14.1 7.2 48 5.6 SSE 19 32 10 17 1018.1 1018.1 0.0
27/09:30am 17.5 13.0 7.0 50 5.2 SSE 20 28 11 15 1018.2 1018.2 0.0
27/09:00am 16.9 13.2 7.8 55 4.6 SSE 17 26 9 14 1018.0 1018.0 0.0
27/08:30am 16.9 13.7 8.3 57 4.4 SSE 15 22 8 12 1017.6 1017.6 0.0
27/08:00am 15.9 13.5 8.6 62 3.7 SE 11 17 6 9 1017.4 1017.4 0.0
27/07:30am 13.9 11.3 7.9 67 3.0 SSE 11 15 6 8 1017.2 1017.2 0.0
27/07:00am 13.5 10.9 7.9 69 2.8 SSE 11 15 6 8 1017.0 1017.0 0.0
27/06:30am 12.9 10.7 8.0 72 2.4 SSE 9 13 5 7 1016.9 1016.9 0.0
27/06:00am 11.4 9.8 8.1 80 1.6 SSE 6 7 3 4 1016.9 1016.9 0.0
27/05:30am 9.8 9.0 8.1 89 0.8 SSW 2 4 1 2 1016.8 1016.8 0.0
27/05:00am 9.4 8.0 7.3 87 1.0 SSW 4 4 2 2 1016.8 1016.8 0.0
27/04:30am 9.7 8.3 7.3 85 1.1 S 4 6 2 3 1016.7 1016.7 0.0
27/04:00am 10.2 9.0 8.1 87 1.0 S 4 4 2 2 1016.8 1016.8 0.0
27/03:30am 9.5 8.0 6.8 83 1.3 S 4 6 2 3 1016.9 1016.9 0.0
27/03:00am 10.4 9.0 7.3 81 1.5 S 4 7 2 4 1017.1 1017.1 0.0
27/02:30am 11.3 9.9 7.2 76 2.0 SSE 4 7 2 4 1017.2 1017.2 0.0
27/02:00am 12.7 11.1 7.8 72 2.4 SE 6 9 3 5 1017.4 1017.4 0.0
27/01:30am 12.6 11.0 8.1 74 2.2 SSE 6 11 3 6 1017.7 1017.7 0.0
27/01:00am 12.6 11.0 7.9 73 2.3 SSE 6 7 3 4 1017.8 1017.8 0.0
27/12:30am 12.7 11.1 8.0 73 2.3 SSE 6 9 3 5 1018.0 1018.0 0.0
27/12:00am 12.5 10.9 7.8 73 2.3 SSE 6 7 3 4 1018.1 1018.1 0.0
 
Date/Time
EDT
Tmp

°C
App
Tmp
°C
Dew
Point
°C
Rel
Hum
%
Delta-T

°C
Wind Press
QNH
hPa
Press
MSL
hPa
Rain
since
9 am
mm
Dir
 
Spd
km/h
Gust
km/h
Spd
kts
Gust
kts
26/11:30pm 12.6 11.0 7.9 73 2.3 SSE 6 7 3 4 1018.2 1018.2 0.0
26/11:00pm 12.7 11.1 7.8 72 2.4 SSE 6 7 3 4 1018.3 1018.3 0.0
26/10:30pm 12.9 11.2 7.6 70 2.6 S 6 9 3 5 1018.4 1018.4 0.0
26/10:00pm 13.6 11.3 7.6 67 2.9 S 9 11 5 6 1018.2 1018.2 0.0
26/09:30pm 13.9 11.6 7.4 65 3.2 SSE 9 13 5 7 1018.0 1018.0 0.0
26/09:00pm 14.4 12.0 7.2 62 3.5 S 9 15 5 8 1017.9 1017.9 0.0
26/08:30pm 15.2 11.3 7.3 59 3.9 S 17 24 9 13 1017.6 1017.6 0.0
26/08:00pm 15.9 11.6 7.1 56 4.3 S 19 26 10 14 1017.4 1017.4 0.0
26/07:30pm 16.6 12.1 7.0 53 4.8 S 20 30 11 16 1017.2 1017.2 0.0
26/07:00pm 17.4 13.1 7.2 51 5.1 SSE 19 30 10 16 1016.8 1016.8 0.0
26/06:30pm 17.3 12.2 6.2 48 5.4 SSE 22 32 12 17 1016.8 1016.8 0.0
26/06:00pm 18.2 13.3 7.0 48 5.6 S 22 32 12 17 1016.7 1016.7 0.0
26/05:30pm 18.0 13.3 7.7 51 5.2 S 22 35 12 19 1016.7 1016.7 0.0
26/05:00pm 18.2 13.1 7.6 50 5.4 S 24 37 13 20 1016.8 1016.8 0.0
26/04:30pm 18.8 13.5 6.9 46 6.0 SSE 24 33 13 18 1017.0 1017.0 0.0
26/04:00pm 18.0 13.5 6.8 48 5.6 SSE 20 32 11 17 1017.0 1017.0 0.0
26/03:30pm 19.1 14.0 7.5 47 5.9 SSE 24 35 13 19 1016.9 1016.9 0.0
26/03:00pm 18.6 13.8 7.4 48 5.7 S 22 33 12 18 1016.8 1016.8 0.0
26/02:30pm 17.9 13.4 7.0 49 5.4 SSE 20 32 11 17 1016.9 1016.9 0.0
26/02:00pm 18.1 13.6 6.9 48 5.6 SSE 20 30 11 16 1017.0 1017.0 0.0
26/01:30pm 18.9 15.0 7.0 46 6.0 SSE 17 28 9 15 1016.9 1016.9 0.0
26/01:00pm 17.8 13.5 7.0 49 5.4 S 19 30 10 16 1017.1 1017.1 0.0
26/12:30pm 18.2 13.9 7.0 48 5.6 S 19 28 10 15 1017.3 1017.3 0.0
26/12:00pm 17.7 13.3 7.2 50 5.3 S 20 26 11 14 1017.3 1017.3 0.0
26/11:30am 17.6 13.7 8.7 56 4.6 SSW 19 24 10 13 1017.3 1017.3 0.0
26/11:00am 17.1 13.7 7.5 53 4.8 SSW 15 24 8 13 1017.4 1017.4 0.0
26/10:30am 16.0 12.2 7.5 57 4.2 WSW 17 20 9 11 1017.3 1017.3 0.0
26/10:00am 16.4 12.8 8.4 59 4.1 WSW 17 20 9 11 1017.2 1017.2 0.0
26/09:30am 15.7 13.0 8.9 64 3.5 W 13 22 7 12 1017.2 1017.2 0.0
26/09:00am 13.2 11.3 8.9 75 2.2 WNW 9 13 5 7 1017.1 1017.1 0.0
26/08:30am 12.1 10.5 8.9 81 1.6 WNW 7 11 4 6 1016.8 1016.8 0.0
26/08:00am 11.3 9.9 8.7 84 1.3 WNW 6 9 3 5 1016.6 1016.6 0.0
26/07:30am 10.6 8.9 8.5 87 1.0 WNW 7 11 4 6 1016.1 1016.1 0.0
26/07:00am 10.0 8.4 8.6 91 0.7 WNW 7 11 4 6 1015.7 1015.7 0.0
26/06:30am 9.1 7.2 7.5 90 0.8 WNW 7 9 4 5 1015.5 1015.5 0.0
26/06:00am 8.7 6.9 7.2 90 0.7 WNW 6 7 3 4 1015.2 1015.2 0.0
26/05:30am 8.6 6.5 6.7 88 0.9 W 7 9 4 5 1014.8 1014.8 0.0
26/05:00am 8.9 6.8 6.5 85 1.1 WNW 7 11 4 6 1014.7 1014.7 0.0
26/04:30am 9.8 7.3 6.5 80 1.5 WNW 9 15 5 8 1014.5 1014.5 0.0
26/04:00am 10.5 8.4 6.5 76 1.9 W 7 11 4 6 1014.1 1014.1 0.0
26/03:30am 10.4 8.2 6.4 76 1.9 WSW 7 9 4 5 1014.0 1014.0 0.0
26/03:00am 10.5 8.4 6.5 76 1.9 W 7 9 4 5 1013.9 1013.9 0.0
26/02:30am 10.8 8.9 6.6 75 2.0 WNW 6 9 3 5 1013.8 1013.8 0.0
26/02:00am 11.4 9.4 6.9 74 2.1 WNW 7 13 4 7 1013.9 1013.9 0.0
26/01:30am 11.2 9.7 6.7 74 2.1 WNW 4 7 2 4 1013.9 1013.9 0.0
26/01:00am 10.9 8.9 6.3 73 2.2 W 6 6 3 3 1014.0 1014.0 0.0
26/12:30am 10.9 8.9 6.3 73 2.2 W 6 9 3 5 1013.8 1013.8 0.0
26/12:00am 11.1 9.0 6.0 71 2.4 WSW 6 9 3 5 1013.8 1013.8 0.0
 
Date/Time
EDT
Tmp

°C
App
Tmp
°C
Dew
Point
°C
Rel
Hum
%
Delta-T

°C
Wind Press
QNH
hPa
Press
MSL
hPa
Rain
since
9 am
mm
Dir
 
Spd
km/h
Gust
km/h
Spd
kts
Gust
kts
25/11:30pm 11.7 9.7 6.4 70 2.5 WSW 6 9 3 5 1013.8 1013.8 0.0
25/11:00pm 12.2 10.2 6.3 67 2.8 WSW 6 7 3 4 1013.7 1013.7 0.0
25/10:30pm 12.8 10.7 5.9 63 3.2 W 6 9 3 5 1013.7 1013.7 0.0
25/10:00pm 13.6 11.4 6.0 60 3.6 WNW 7 9 4 5 1013.4 1013.4 0.0
25/09:30pm 13.9 11.5 5.3 56 4.0 W 7 11 4 6 1013.1 1013.1 0.0
25/09:00pm 14.1 11.8 5.5 56 4.1 WSW 7 13 4 7 1012.6 1012.6 0.0
25/08:30pm 15.3 11.4 5.2 51 4.8 WSW 15 22 8 12 1012.2 1012.2 0.0
25/08:00pm 16.2 11.1 4.3 45 5.6 WSW 20 28 11 15 1012.2 1012.2 0.0
25/07:30pm 17.5 12.0 3.8 40 6.4 WSW 22 35 12 19 1011.4 1011.4 0.0
25/07:00pm 17.5 11.2 3.8 40 6.4 SW 26 39 14 21 1011.2 1011.2 0.0
25/06:30pm 18.7 12.8 4.1 38 6.9 WSW 24 35 13 19 1010.7 1010.7 0.0
25/06:00pm 18.1 13.2 5.0 42 6.3 WSW 20 28 11 15 1010.3 1010.3 0.0
25/05:30pm 18.6 13.3 5.1 41 6.5 WSW 22 35 12 19 1010.3 1010.3 0.0
25/05:00pm 18.3 11.4 4.8 41 6.5 WSW 30 43 16 23 1010.1 1010.1 0.0
25/04:30pm 18.1 13.1 6.6 47 5.7 W 22 37 12 20 1010.0 1010.0 0.0
25/04:14pm 18.0 11.3 5.6 44 6.0 WSW 30 50 16 27 1009.8 1009.8 0.0
25/04:00pm 18.5 12.0 6.4 45 6.0 WSW 30 46 16 25 1009.6 1009.6 0.0
25/03:30pm 19.4 12.4 6.2 42 6.6 WSW 32 46 17 25 1009.4 1009.4 0.0
25/03:02pm 20.1 13.0 5.4 38 7.2 WSW 32 52 17 28 1009.2 1009.2 0.0
25/03:00pm 20.4 13.4 6.0 39 7.2 WSW 32 46 17 25 1009.1 1009.1 0.0
25/02:30pm 21.4 14.8 6.1 37 7.7 WSW 30 52 16 28 1008.9 1008.9 0.0
25/02:05pm 21.3 14.3 4.0 32 8.4 W 30 50 16 27 1008.6 1008.6 0.0
25/02:00pm 21.5 15.6 4.1 32 8.4 W 24 41 13 22 1008.5 1008.5 0.0
25/01:30pm 20.6 14.9 5.0 36 7.6 W 24 41 13 22 1008.5 1008.5 0.0
25/01:01pm 18.3 12.0 7.4 49 5.5 WSW 30 50 16 27 1008.8 1008.8 0.0
25/01:00pm 18.5 12.8 6.7 46 5.9 WSW 26 46 14 25 1008.7 1008.7 0.0
25/12:41pm 18.4 11.9 4.9 41 6.5 W 28 46 15 25 1008.5 1008.5 0.0
25/12:30pm 19.8 13.2 6.2 41 6.8 W 30 41 16 22 1008.5 1008.5 0.0

Latest Capital City Observations: Canberra | Sydney | Melbourne | Brisbane | Adelaide | Perth | Hobart | Darwin

Other Formats:

Comma delimited format used in spreadsheet applications
http://www.bom.gov.au/fwo/IDV60901/IDV60901.94857.axf

JavaScript Object Notation format (JSON) in row-major order
http://www.bom.gov.au/fwo/IDV60901/IDV60901.94857.json